createdAt,value
2018-05-04T00:01:12.778Z,12.48
2018-05-04T00:03:40.899Z,12.50
2018-05-04T00:06:09.163Z,12.50
2018-05-04T00:08:37.280Z,12.55
2018-05-04T00:11:05.378Z,12.61
2018-05-04T00:13:33.505Z,12.62
2018-05-04T00:16:01.639Z,12.65
2018-05-04T00:18:29.767Z,12.65
2018-05-04T00:20:57.880Z,12.67
2018-05-04T00:23:26.021Z,12.64
2018-05-04T00:25:54.154Z,12.59
2018-05-04T00:28:22.262Z,12.57
2018-05-04T00:30:50.389Z,12.54
2018-05-04T00:33:18.537Z,12.57
2018-05-04T00:35:46.646Z,12.55
2018-05-04T00:38:14.769Z,12.50
2018-05-04T00:40:42.908Z,12.43
2018-05-04T00:43:11.022Z,12.47
2018-05-04T00:45:39.145Z,12.44
2018-05-04T00:48:07.279Z,12.50
2018-05-04T00:50:35.417Z,12.36
2018-05-04T00:53:03.559Z,12.35
2018-05-04T00:55:31.677Z,12.40
2018-05-04T00:57:59.790Z,12.38
2018-05-04T01:00:27.891Z,12.47
2018-05-04T01:02:56.011Z,12.53
2018-05-04T01:05:24.345Z,12.57
2018-05-04T01:07:52.487Z,12.58
2018-05-04T01:10:20.604Z,12.61
2018-05-04T01:12:48.717Z,12.60
2018-05-04T01:15:16.841Z,12.56
2018-05-04T01:17:44.954Z,12.56
2018-05-04T01:20:13.092Z,12.62
2018-05-04T01:22:41.190Z,12.57
2018-05-04T01:25:09.309Z,12.56
2018-05-04T01:27:37.473Z,12.57
2018-05-04T01:30:05.595Z,12.53
2018-05-04T01:32:33.719Z,12.41
2018-05-04T01:35:01.854Z,12.32
2018-05-04T01:37:29.969Z,12.40
2018-05-04T01:39:58.095Z,12.41
2018-05-04T01:42:26.225Z,12.50
2018-05-04T01:44:54.359Z,12.50
2018-05-04T01:47:22.477Z,12.45
2018-05-04T01:49:50.599Z,12.46
2018-05-04T01:52:18.707Z,12.48
2018-05-04T01:54:46.837Z,12.53
2018-05-04T01:57:14.966Z,12.38
2018-05-04T01:59:43.092Z,12.36
2018-05-04T02:02:11.216Z,12.43
2018-05-04T02:04:39.359Z,12.41
2018-05-04T02:07:07.459Z,12.41
2018-05-04T02:09:35.566Z,12.53
2018-05-04T02:12:03.674Z,12.56
2018-05-04T02:14:31.823Z,12.47
2018-05-04T02:16:59.941Z,12.42
2018-05-04T02:19:28.051Z,12.46
2018-05-04T02:21:56.181Z,12.43
2018-05-04T02:24:24.298Z,12.30
2018-05-04T02:26:52.420Z,12.37
2018-05-04T02:29:20.545Z,12.31
2018-05-04T02:31:48.736Z,12.27
2018-05-04T02:34:16.861Z,12.28
2018-05-04T02:36:45.035Z,12.23
2018-05-04T02:39:13.157Z,12.30
2018-05-04T02:41:41.288Z,12.27
2018-05-04T02:44:09.432Z,12.29
2018-05-04T02:46:37.545Z,12.41
2018-05-04T02:49:05.659Z,12.32
2018-05-04T02:51:33.789Z,12.27
2018-05-04T02:54:01.909Z,12.28
2018-05-04T02:56:30.015Z,12.16
2018-05-04T02:58:58.147Z,12.01
2018-05-04T03:01:26.265Z,12.06
2018-05-04T03:03:54.397Z,12.07
2018-05-04T03:06:22.499Z,12.09
2018-05-04T03:08:50.638Z,12.12
2018-05-04T03:11:18.758Z,12.05
2018-05-04T03:13:46.859Z,12.13
2018-05-04T03:16:14.978Z,12.21
2018-05-04T03:18:43.121Z,12.20
2018-05-04T03:21:11.241Z,12.22
2018-05-04T03:23:39.339Z,12.01
2018-05-04T03:26:07.501Z,11.92
2018-05-04T03:28:35.634Z,11.97
2018-05-04T03:31:03.768Z,12.11
2018-05-04T03:33:31.899Z,12.11
2018-05-04T03:36:00.039Z,12.09
2018-05-04T03:38:28.136Z,11.98
2018-05-04T03:40:56.325Z,12.00
2018-05-04T03:43:24.441Z,11.94
2018-05-04T03:45:52.565Z,11.98
2018-05-04T03:48:21.521Z,12.03
2018-05-04T03:50:49.700Z,12.02
2018-05-04T03:53:17.821Z,12.03
2018-05-04T03:55:46.196Z,11.97
2018-05-04T03:58:26.000Z,11.97
2018-05-04T04:01:06.099Z,11.86
2018-05-04T04:03:46.014Z,11.80
2018-05-04T04:06:14.130Z,11.71
2018-05-04T04:08:42.272Z,11.84
2018-05-04T04:11:10.404Z,11.82
2018-05-04T04:13:38.534Z,11.67
2018-05-04T04:16:06.672Z,11.65
2018-05-04T04:18:34.829Z,11.61
2018-05-04T04:21:02.952Z,11.54
2018-05-04T04:23:31.385Z,11.60
2018-05-04T04:25:59.531Z,11.67
2018-05-04T04:28:27.683Z,11.69
2018-05-04T04:30:55.801Z,11.62
2018-05-04T04:33:23.910Z,11.64
2018-05-04T04:35:52.153Z,11.53
2018-05-04T04:38:20.367Z,11.58
2018-05-04T04:40:48.493Z,11.39
2018-05-04T04:43:16.615Z,11.54
2018-05-04T04:45:44.741Z,11.52
2018-05-04T04:48:12.861Z,11.60
2018-05-04T04:50:41.019Z,11.63
2018-05-04T04:53:09.129Z,11.60
2018-05-04T04:55:37.247Z,11.74
2018-05-04T04:58:05.407Z,11.78
2018-05-04T05:00:33.937Z,11.67
2018-05-04T05:03:05.763Z,11.68
2018-05-04T05:05:33.890Z,11.63
2018-05-04T05:08:02.014Z,11.71
2018-05-04T05:10:30.136Z,11.73
2018-05-04T05:12:58.504Z,12.24
2018-05-04T05:15:26.647Z,12.21
2018-05-04T05:17:54.765Z,12.09
2018-05-04T05:20:22.904Z,12.10
2018-05-04T05:22:51.047Z,12.12
2018-05-04T05:25:19.191Z,12.09
2018-05-04T05:27:47.319Z,12.15
2018-05-04T05:30:15.445Z,12.15
2018-05-04T05:32:43.559Z,12.38
2018-05-04T05:35:11.694Z,12.45
2018-05-04T05:37:39.815Z,12.63
2018-05-04T05:40:07.945Z,12.31
2018-05-04T05:42:36.057Z,12.35
2018-05-04T05:45:04.189Z,12.41
2018-05-04T05:47:32.314Z,12.39
2018-05-04T05:50:00.461Z,12.46
2018-05-04T05:52:28.571Z,12.46
2018-05-04T05:54:56.699Z,12.47
2018-05-04T05:57:24.818Z,12.54
2018-05-04T05:59:52.946Z,12.54
2018-05-04T06:02:21.139Z,12.72
2018-05-04T06:04:49.359Z,12.79
2018-05-04T06:07:17.575Z,12.70
2018-05-04T06:09:45.742Z,12.86
2018-05-04T06:12:13.903Z,12.93
2018-05-04T06:14:42.031Z,12.89
2018-05-04T06:17:10.152Z,12.97
2018-05-04T06:19:38.317Z,12.99
2018-05-04T06:22:06.432Z,12.94
2018-05-04T06:24:34.543Z,12.96
2018-05-04T06:27:02.692Z,13.07
2018-05-04T06:29:30.801Z,13.22
2018-05-04T06:31:58.930Z,13.19
2018-05-04T06:34:27.051Z,13.30
2018-05-04T06:36:55.237Z,13.45
2018-05-04T06:39:23.367Z,13.48
2018-05-04T06:41:51.497Z,13.51
2018-05-04T06:44:19.615Z,13.54
2018-05-04T06:46:47.727Z,13.61
2018-05-04T06:49:16.014Z,13.67
2018-05-04T06:51:44.200Z,13.85
2018-05-04T06:54:12.373Z,13.87
2018-05-04T06:56:40.576Z,14.19
2018-05-04T06:59:08.757Z,14.34
2018-05-04T07:01:36.885Z,14.48
2018-05-04T07:04:05.029Z,14.49
2018-05-04T07:06:33.163Z,14.38
2018-05-04T07:09:01.281Z,14.14
2018-05-04T07:11:29.613Z,14.19
2018-05-04T07:13:57.759Z,14.35
2018-05-04T07:16:25.884Z,14.45
2018-05-04T07:18:54.023Z,14.39
2018-05-04T07:21:22.148Z,14.47
2018-05-04T07:23:50.272Z,14.60
2018-05-04T07:26:18.433Z,14.70
2018-05-04T07:28:46.536Z,14.62
2018-05-04T07:31:14.650Z,14.71
2018-05-04T07:33:42.777Z,14.74
2018-05-04T07:36:10.905Z,14.70
2018-05-04T07:38:39.073Z,14.83
2018-05-04T07:41:07.492Z,14.81
2018-05-04T07:43:35.596Z,14.87
2018-05-04T07:46:03.710Z,14.94
2018-05-04T07:48:31.869Z,14.91
2018-05-04T07:50:59.964Z,14.92
2018-05-04T07:53:28.076Z,14.88
2018-05-04T07:55:56.208Z,14.99
2018-05-04T07:58:24.328Z,14.99
2018-05-04T08:00:52.457Z,14.93
2018-05-04T08:03:20.607Z,15.08
2018-05-04T08:05:48.716Z,15.16
2018-05-04T08:08:16.818Z,15.21
2018-05-04T08:10:44.982Z,15.40
2018-05-04T08:13:13.094Z,15.26
2018-05-04T08:15:41.257Z,15.28
2018-05-04T08:18:09.393Z,15.47
2018-05-04T08:20:37.513Z,15.59
2018-05-04T08:23:05.629Z,15.59
2018-05-04T08:25:33.782Z,15.58
2018-05-04T08:28:01.910Z,15.54
2018-05-04T08:30:30.025Z,15.67
2018-05-04T08:32:58.162Z,15.72
2018-05-04T08:35:26.295Z,15.65
2018-05-04T08:37:54.413Z,15.60
2018-05-04T08:40:22.549Z,15.72
2018-05-04T08:42:50.745Z,15.73
2018-05-04T08:45:18.805Z,15.86
2018-05-04T08:47:46.930Z,15.94
2018-05-04T08:50:15.053Z,16.01
2018-05-04T08:52:43.147Z,16.02
2018-05-04T08:55:15.435Z,16.12
2018-05-04T08:57:43.547Z,16.15
2018-05-04T09:00:11.649Z,16.12
2018-05-04T09:02:39.787Z,16.15
2018-05-04T09:05:08.159Z,16.19
2018-05-04T09:07:36.164Z,16.27
2018-05-04T09:10:04.282Z,16.25
2018-05-04T09:12:32.396Z,16.32
2018-05-04T09:15:00.544Z,16.43
2018-05-04T09:17:28.719Z,16.36
2018-05-04T09:19:56.833Z,16.45
2018-05-04T09:22:24.934Z,16.52
2018-05-04T09:24:53.054Z,16.55
2018-05-04T09:27:21.157Z,16.56
2018-05-04T09:29:49.281Z,16.77
2018-05-04T09:32:17.413Z,16.80
2018-05-04T09:34:45.533Z,17.27
2018-05-04T09:37:13.685Z,17.01
2018-05-04T09:39:45.427Z,16.87
2018-05-04T09:42:13.538Z,16.93
2018-05-04T09:44:41.639Z,16.90
2018-05-04T09:47:09.769Z,16.85
2018-05-04T09:49:37.909Z,16.83
2018-05-04T09:52:06.039Z,16.84
2018-05-04T09:54:34.155Z,16.91
2018-05-04T09:57:02.254Z,17.04
2018-05-04T09:59:30.376Z,17.12
2018-05-04T10:01:58.558Z,17.14
2018-05-04T10:04:26.700Z,17.13
2018-05-04T10:06:54.782Z,17.14
2018-05-04T10:09:22.921Z,17.23
2018-05-04T10:11:51.033Z,17.26
2018-05-04T10:14:19.127Z,17.20
2018-05-04T10:16:47.282Z,17.33
2018-05-04T10:19:15.391Z,17.28
2018-05-04T10:21:43.495Z,17.29
2018-05-04T10:24:11.816Z,17.37
2018-05-04T10:26:39.943Z,17.32
2018-05-04T10:29:08.063Z,17.33
2018-05-04T10:31:36.162Z,17.48
2018-05-04T10:34:04.304Z,17.52
2018-05-04T10:36:32.402Z,17.61
2018-05-04T10:39:00.644Z,17.61
2018-05-04T10:41:28.677Z,17.62
2018-05-04T10:43:56.779Z,17.69
2018-05-04T10:46:24.932Z,17.68
2018-05-04T10:48:53.043Z,17.62
2018-05-04T10:51:21.175Z,17.63
2018-05-04T10:53:49.298Z,17.75
2018-05-04T10:56:17.413Z,17.83
2018-05-04T10:58:45.548Z,17.84
2018-05-04T11:01:13.674Z,17.91
2018-05-04T11:03:41.820Z,17.85
2018-05-04T11:06:09.954Z,17.92
2018-05-04T11:08:38.090Z,18.01
2018-05-04T11:11:06.216Z,18.09
2018-05-04T11:13:34.333Z,18.18
2018-05-04T11:16:02.454Z,18.18
2018-05-04T11:18:30.592Z,18.10
2018-05-04T11:20:58.696Z,18.12
2018-05-04T11:23:26.839Z,18.20
2018-05-04T11:25:54.973Z,18.23
2018-05-04T11:28:23.085Z,18.37
2018-05-04T11:30:51.214Z,18.33
2018-05-04T11:33:19.298Z,18.26
2018-05-04T11:35:47.404Z,18.38
2018-05-04T11:38:15.525Z,18.46
2018-05-04T11:40:43.664Z,18.62
2018-05-04T11:43:11.833Z,18.64
2018-05-04T11:45:39.962Z,18.73
2018-05-04T11:48:08.101Z,18.78
2018-05-04T11:50:36.226Z,18.85
2018-05-04T11:53:04.353Z,18.95
2018-05-04T11:55:32.483Z,18.90
2018-05-04T11:58:00.612Z,19.07
2018-05-04T12:00:28.734Z,19.01
2018-05-04T12:02:56.862Z,19.15
2018-05-04T12:05:25.033Z,19.11
2018-05-04T12:07:53.192Z,19.17
2018-05-04T12:10:21.305Z,19.39
2018-05-04T12:12:49.417Z,19.62
2018-05-04T12:15:17.548Z,19.45
2018-05-04T12:17:45.700Z,19.56
2018-05-04T12:20:13.826Z,19.50
2018-05-04T12:22:41.972Z,19.23
2018-05-04T12:25:10.115Z,19.54
2018-05-04T12:27:38.273Z,19.44
2018-05-04T12:30:06.456Z,19.44
2018-05-04T12:32:34.591Z,19.49
2018-05-04T12:35:02.850Z,19.47
2018-05-04T12:37:30.986Z,19.59
2018-05-04T12:39:59.090Z,19.79
2018-05-04T12:42:27.232Z,19.64
2018-05-04T12:44:55.360Z,19.78
2018-05-04T12:47:23.493Z,19.74
2018-05-04T12:49:51.613Z,19.90
2018-05-04T12:52:19.738Z,19.97
2018-05-04T12:54:47.871Z,19.84
2018-05-04T12:57:15.989Z,19.88
2018-05-04T12:59:44.113Z,20.01
2018-05-04T13:02:12.247Z,20.10
2018-05-04T13:04:40.370Z,20.00
2018-05-04T13:07:08.494Z,19.96
2018-05-04T13:09:36.624Z,19.95
2018-05-04T13:12:04.764Z,20.17
2018-05-04T13:14:32.871Z,20.02
2018-05-04T13:17:00.993Z,20.14
2018-05-04T13:19:29.109Z,20.35
2018-05-04T13:21:57.231Z,20.39
2018-05-04T13:24:27.703Z,20.26
2018-05-04T13:26:55.828Z,20.02
2018-05-04T13:29:24.012Z,20.19
2018-05-04T13:31:52.074Z,20.22
2018-05-04T13:34:20.203Z,20.19
2018-05-04T13:36:48.333Z,20.28
2018-05-04T13:39:16.434Z,20.29
2018-05-04T13:41:44.536Z,20.30
2018-05-04T13:44:12.665Z,20.33
2018-05-04T13:46:40.769Z,20.30
2018-05-04T13:49:08.991Z,20.22
2018-05-04T13:51:37.212Z,20.21
2018-05-04T13:54:05.257Z,20.35
2018-05-04T13:56:33.378Z,20.31
2018-05-04T13:59:01.540Z,20.24
2018-05-04T14:01:29.676Z,20.28
2018-05-04T14:03:57.895Z,20.24
2018-05-04T14:06:26.312Z,20.30
2018-05-04T14:08:54.440Z,20.21
2018-05-04T14:11:22.567Z,20.20
2018-05-04T14:13:50.686Z,20.17
2018-05-04T14:16:18.932Z,20.15
2018-05-04T14:18:47.142Z,20.19
2018-05-04T14:21:15.379Z,20.21
2018-05-04T14:23:43.480Z,20.10
2018-05-04T14:26:11.603Z,20.16
2018-05-04T14:28:39.759Z,20.17
2018-05-04T14:31:07.969Z,20.21
2018-05-04T14:33:36.073Z,20.41
2018-05-04T14:36:04.421Z,20.34
2018-05-04T14:38:32.552Z,20.37
2018-05-04T14:41:00.650Z,20.35
2018-05-04T14:43:28.842Z,20.37
2018-05-04T14:46:00.146Z,20.39
2018-05-04T14:48:28.320Z,20.31
2018-05-04T14:51:00.264Z,20.40
2018-05-04T14:53:28.448Z,20.28
2018-05-04T14:55:56.595Z,20.35
2018-05-04T14:58:24.945Z,20.34
2018-05-04T15:00:53.050Z,20.29
2018-05-04T15:03:21.160Z,20.36
2018-05-04T15:05:49.310Z,20.24
2018-05-04T15:08:17.420Z,20.24
2018-05-04T15:10:45.582Z,20.25
2018-05-04T15:13:13.717Z,20.15
2018-05-04T15:15:41.852Z,20.21
2018-05-04T15:18:09.981Z,20.13
2018-05-04T15:20:38.309Z,20.21
2018-05-04T15:23:06.438Z,20.06
2018-05-04T15:25:34.557Z,20.01
2018-05-04T15:28:02.696Z,19.94
2018-05-04T15:30:30.794Z,20.10
2018-05-04T15:32:58.899Z,20.20
2018-05-04T15:35:27.007Z,20.19
2018-05-04T15:37:55.124Z,20.09
2018-05-04T15:40:23.311Z,20.12
2018-05-04T15:42:51.401Z,20.11
2018-05-04T15:45:19.535Z,20.10
2018-05-04T15:47:47.645Z,20.18
2018-05-04T15:50:21.632Z,20.21
2018-05-04T15:52:49.730Z,20.15
2018-05-04T15:55:17.853Z,20.16
2018-05-04T15:57:46.061Z,20.17
2018-05-04T16:00:14.183Z,20.21
2018-05-04T16:02:42.323Z,20.25
2018-05-04T16:05:10.474Z,20.23
2018-05-04T16:07:38.580Z,20.22
2018-05-04T16:10:06.697Z,20.16
2018-05-04T16:12:34.824Z,20.19
2018-05-04T16:15:02.967Z,20.15
2018-05-04T16:17:31.170Z,20.12
2018-05-04T16:19:59.294Z,20.11
2018-05-04T16:22:27.457Z,20.11
2018-05-04T16:24:55.568Z,20.09
2018-05-04T16:27:23.695Z,20.09
2018-05-04T16:29:51.807Z,20.00
2018-05-04T16:32:19.925Z,20.09
2018-05-04T16:34:48.076Z,20.00
2018-05-04T16:37:16.195Z,19.97
2018-05-04T16:39:44.336Z,19.98
2018-05-04T16:42:12.443Z,19.99
2018-05-04T16:44:40.582Z,20.00
2018-05-04T16:47:14.241Z,19.99
2018-05-04T16:49:43.262Z,19.97
2018-05-04T16:52:11.379Z,19.93
2018-05-04T16:54:39.526Z,19.89
2018-05-04T16:57:07.655Z,19.85
2018-05-04T16:59:35.788Z,19.83
2018-05-04T17:02:03.940Z,19.82
2018-05-04T17:04:32.065Z,19.79
2018-05-04T17:07:00.183Z,19.81
2018-05-04T17:09:28.324Z,19.76
2018-05-04T17:11:56.449Z,19.75
2018-05-04T17:14:24.565Z,19.67
2018-05-04T17:16:52.749Z,19.69
2018-05-04T17:19:21.330Z,19.68
2018-05-04T17:21:49.435Z,19.63
2018-05-04T17:24:17.613Z,19.59
2018-05-04T17:26:45.825Z,19.57
2018-05-04T17:29:14.056Z,19.60
2018-05-04T17:31:42.333Z,19.58
2018-05-04T17:34:10.482Z,19.54
2018-05-04T17:36:38.649Z,19.56
2018-05-04T17:39:07.019Z,19.54
2018-05-04T17:41:35.256Z,19.43
2018-05-04T17:44:03.394Z,19.41
2018-05-04T17:46:31.510Z,19.40
2018-05-04T17:48:59.637Z,19.33
2018-05-04T17:51:27.739Z,19.35
2018-05-04T17:53:55.893Z,19.36
2018-05-04T17:56:24.011Z,19.28
2018-05-04T17:58:52.130Z,19.20
2018-05-04T18:01:20.728Z,19.21
2018-05-04T18:03:48.851Z,19.19
2018-05-04T18:06:16.950Z,19.13
2018-05-04T18:08:45.097Z,19.10
2018-05-04T18:11:13.219Z,19.11
2018-05-04T18:13:41.347Z,19.09
2018-05-04T18:16:09.485Z,19.01
2018-05-04T18:18:37.601Z,18.97
2018-05-04T18:21:05.728Z,18.87
2018-05-04T18:23:33.955Z,18.88
2018-05-04T18:26:02.059Z,18.82
2018-05-04T18:28:30.197Z,18.91
2018-05-04T18:30:58.323Z,18.89
2018-05-04T18:33:26.441Z,18.84
2018-05-04T18:35:54.538Z,18.83
2018-05-04T18:38:22.708Z,18.79
2018-05-04T18:40:50.782Z,18.77
2018-05-04T18:43:18.905Z,18.68
2018-05-04T18:45:47.046Z,18.60
2018-05-04T18:48:15.248Z,18.59
2018-05-04T18:50:43.280Z,18.52
2018-05-04T18:53:11.421Z,18.56
2018-05-04T18:55:39.566Z,18.43
2018-05-04T18:58:07.678Z,18.42
2018-05-04T19:00:35.814Z,18.33
2018-05-04T19:03:09.657Z,18.40
2018-05-04T19:05:37.771Z,18.31
2018-05-04T19:08:09.403Z,18.26
2018-05-04T19:10:37.434Z,18.16
2018-05-04T19:13:05.572Z,18.03
2018-05-04T19:15:33.689Z,18.09
2018-05-04T19:18:01.802Z,18.14
2018-05-04T19:20:30.001Z,18.11
2018-05-04T19:22:58.079Z,18.19
2018-05-04T19:25:26.212Z,18.01
2018-05-04T19:27:54.361Z,17.97
2018-05-04T19:30:22.458Z,17.85
2018-05-04T19:32:50.569Z,17.89
2018-05-04T19:35:18.705Z,17.91
2018-05-04T19:37:46.806Z,17.80
2018-05-04T19:40:14.920Z,17.81
2018-05-04T19:42:43.042Z,17.76
2018-05-04T19:45:11.152Z,17.73
2018-05-04T19:47:39.296Z,17.73
2018-05-04T19:50:07.413Z,17.72
2018-05-04T19:52:35.574Z,17.68
2018-05-04T19:55:03.652Z,17.61
2018-05-04T19:57:31.820Z,17.63
2018-05-04T19:59:59.919Z,17.65
2018-05-04T20:02:28.014Z,17.70
2018-05-04T20:04:56.145Z,17.72
2018-05-04T20:07:24.266Z,17.72
2018-05-04T20:09:52.377Z,17.57
2018-05-04T20:12:20.501Z,17.42
2018-05-04T20:14:48.621Z,17.39
2018-05-04T20:17:16.791Z,17.50
2018-05-04T20:19:44.928Z,17.54
2018-05-04T20:22:13.041Z,17.50
2018-05-04T20:24:41.180Z,17.49
2018-05-04T20:27:09.297Z,17.37
2018-05-04T20:29:37.432Z,17.30
2018-05-04T20:32:05.559Z,17.29
2018-05-04T20:34:33.699Z,17.26
2018-05-04T20:37:01.837Z,17.16
2018-05-04T20:39:29.953Z,17.10
2018-05-04T20:41:58.108Z,17.06
2018-05-04T20:44:26.248Z,17.05
2018-05-04T20:46:54.360Z,16.93
2018-05-04T20:49:22.474Z,16.90
2018-05-04T20:51:50.601Z,16.85
2018-05-04T20:54:18.740Z,16.89
2018-05-04T20:56:46.869Z,16.87
2018-05-04T20:59:14.988Z,16.72
2018-05-04T21:01:43.233Z,16.68
2018-05-04T21:04:11.361Z,16.83
2018-05-04T21:06:39.460Z,16.82
2018-05-04T21:09:11.408Z,16.84
2018-05-04T21:11:39.530Z,16.91
2018-05-04T21:14:07.663Z,16.86
2018-05-04T21:16:35.758Z,16.76
2018-05-04T21:19:03.907Z,16.81
2018-05-04T21:21:32.004Z,16.71
2018-05-04T21:24:00.117Z,16.63
2018-05-04T21:26:32.019Z,16.74
2018-05-04T21:29:00.118Z,16.79
2018-05-04T21:31:28.399Z,16.80
2018-05-04T21:33:57.649Z,16.72
2018-05-04T21:36:25.765Z,16.74
2018-05-04T21:38:53.940Z,16.72
2018-05-04T21:41:22.191Z,16.69
2018-05-04T21:43:50.343Z,16.74
2018-05-04T21:46:18.483Z,16.76
2018-05-04T21:48:46.751Z,16.76
2018-05-04T21:51:14.880Z,16.74
2018-05-04T21:53:43.021Z,16.69
2018-05-04T21:56:11.147Z,16.63
2018-05-04T21:58:39.339Z,16.53
2018-05-04T22:01:07.501Z,16.51
2018-05-04T22:03:36.573Z,16.36
2018-05-04T22:06:04.697Z,16.36
2018-05-04T22:08:32.832Z,16.26
2018-05-04T22:11:00.987Z,16.24
2018-05-04T22:13:29.110Z,16.28
2018-05-04T22:15:57.344Z,16.22
2018-05-04T22:18:25.498Z,16.34
2018-05-04T22:20:53.612Z,16.35
2018-05-04T22:23:21.725Z,16.37
2018-05-04T22:25:49.868Z,16.38
2018-05-04T22:28:17.975Z,16.36
2018-05-04T22:30:46.093Z,16.27
2018-05-04T22:33:14.207Z,16.32
2018-05-04T22:35:42.329Z,16.19
2018-05-04T22:38:10.449Z,16.21
2018-05-04T22:40:38.584Z,16.10
2018-05-04T22:43:10.311Z,16.18
2018-05-04T22:45:38.478Z,16.13
2018-05-04T22:48:06.645Z,16.07
2018-05-04T22:50:34.783Z,16.10
2018-05-04T22:53:02.927Z,16.14
2018-05-04T22:55:31.072Z,16.10
2018-05-04T22:57:59.199Z,15.89
2018-05-04T23:00:27.326Z,15.97
2018-05-04T23:02:55.446Z,15.93
2018-05-04T23:05:23.566Z,16.02
2018-05-04T23:07:51.709Z,15.95
2018-05-04T23:10:19.872Z,15.90
2018-05-04T23:12:47.992Z,15.89
2018-05-04T23:15:16.178Z,16.05
2018-05-04T23:17:44.304Z,15.92
2018-05-04T23:20:12.411Z,15.65
2018-05-04T23:22:40.576Z,15.64
2018-05-04T23:25:08.723Z,15.72
2018-05-04T23:27:36.851Z,15.80
2018-05-04T23:30:04.977Z,15.72
2018-05-04T23:32:33.109Z,15.58
2018-05-04T23:35:01.243Z,15.61
2018-05-04T23:37:29.351Z,15.52
2018-05-04T23:39:57.507Z,15.48
2018-05-04T23:42:25.625Z,15.55
2018-05-04T23:44:53.748Z,15.56
2018-05-04T23:47:21.874Z,15.53
2018-05-04T23:49:50.004Z,15.61
2018-05-04T23:52:18.121Z,15.60
2018-05-04T23:54:46.260Z,15.52
2018-05-04T23:57:14.399Z,15.49
2018-05-04T23:59:42.515Z,15.55
